ایرانشهر, ایران

02:23 PM IRST on ژانویه 17, 2017 (GMT +0330)
Iran Shahr | | Change Station

Elev 1939 ft 27.20 °N, 60.70 °E | Updated 53 minutes ago

صاف
صاف
66 °F
Feels Like 66 °F
N
5
باد متغير باد from WSW

امروز
High -- | Low -- °F
--% Chance of Precip.
دیروز
High -- | Low -- °F
Precip. -- در
فشار 30.06 در
ديد -9999.0 مايل، ميل (در برابر كيلومتر
ابری
قطره شبنم 19 °F
رطوبت 17%
بارش باران 0.00 در
برف عمیق Not available.
6:17 AM 4:56 PM
Waning Gibbous, 73% visible
METAR OIZI 171000Z 24004KT CAVOK 19/M07 Q1018
فشار 30.06 در
ديد -9999.0 مايل، ميل (در برابر كيلومتر
ابری
قطره شبنم 19 °F
رطوبت 17%
بارش باران 0.00 در
برف عمیق Not available.
6:17 AM 4:56 PM
Waning Gibbous, 73% visible
METAR OIZI 171000Z 24004KT CAVOK 19/M07 Q1018

Get Your Daily Forecast Email!

Thanks for signing up!

Be on the lookout for a verification email in your inbox.

You'll start receiving the daily forecast at 8 AM.

×

10-Day Weather Forecast

No radar image for this location.
×

Almanac

ستاره شناسی

Jan. 17, 2017 Rise Set
وقت حقیقی
تاریک و روشن اجتماعی
تاریک روشن دریایی
شفق و فلق نجومی
ماه
میزان روشنایی روز
طول روز
Tomorrow will be .
, % of the Moon is Illuminated

Today's Extremes

Country Highs Country Lows

Community

WunderPhotos

Upload Photos

1,962,540 photos uploaded!

WunderBlog® & News

Nearby

تمیزی هوا

  تمیزی هوا AQ Index آلاینده
Not available.

عمق برف

Station Depth Elevation

Earthquake Activity

شهر Distance Mag. Time & Date
Minimum magnitude displayed is 2.5.

Coastal Water Temperatures

منطقه درجه حرارت

Stations

Nearby Weather Stations

Station Location دما باد سرد قطره شبنم رطوبت باد Precip. Elev ارتقا دادن Type